createdAt,value
2022-08-18T00:01:16.689Z,25.12
2022-08-18T00:03:55.597Z,25.13
2022-08-18T00:06:28.370Z,25.16
2022-08-18T00:08:59.184Z,25.15
2022-08-18T00:11:27.805Z,25.16
2022-08-18T00:13:55.919Z,25.13
2022-08-18T00:16:23.966Z,25.10
2022-08-18T00:18:52.012Z,25.10
2022-08-18T00:21:20.241Z,25.10
2022-08-18T00:23:48.326Z,25.08
2022-08-18T00:26:18.192Z,25.10
2022-08-18T00:28:46.211Z,25.09
2022-08-18T00:31:14.236Z,25.09
2022-08-18T00:33:43.683Z,25.10
2022-08-18T00:36:12.048Z,25.14
2022-08-18T00:38:40.661Z,25.05
2022-08-18T00:41:09.226Z,25.02
2022-08-18T00:43:44.258Z,25.04
2022-08-18T00:46:18.067Z,25.04
2022-08-18T00:48:48.831Z,25.05
2022-08-18T00:51:27.294Z,25.03
2022-08-18T00:54:01.638Z,24.99
2022-08-18T00:56:34.879Z,24.95
2022-08-18T00:59:09.391Z,25.00
2022-08-18T01:01:38.903Z,24.98
2022-08-18T01:04:10.850Z,24.99
2022-08-18T01:06:43.655Z,24.98
2022-08-18T01:09:12.209Z,24.99
2022-08-18T01:11:41.693Z,24.98
2022-08-18T01:14:15.843Z,24.98
2022-08-18T01:17:01.720Z,24.94
2022-08-18T01:19:48.045Z,24.91
2022-08-18T01:22:22.730Z,24.88
2022-08-18T01:25:10.782Z,24.88
2022-08-18T01:27:41.684Z,24.87
2022-08-18T01:30:13.579Z,24.84
2022-08-18T01:32:42.979Z,24.83
2022-08-18T01:35:15.219Z,24.82
2022-08-18T01:37:43.457Z,24.84
2022-08-18T01:41:17.625Z,24.84
2022-08-18T01:43:06.081Z,24.85
2022-08-18T01:45:34.656Z,24.85
2022-08-18T01:48:04.792Z,24.89
2022-08-18T01:50:34.313Z,24.91
2022-08-18T01:53:05.253Z,24.95
2022-08-18T01:55:34.931Z,24.98
2022-08-18T01:58:03.275Z,25.01
2022-08-18T02:00:32.339Z,25.01
2022-08-18T02:03:02.985Z,25.02
2022-08-18T02:05:35.672Z,25.05
2022-08-18T02:08:04.351Z,25.04
2022-08-18T02:10:32.538Z,25.06
2022-08-18T02:13:02.059Z,25.12
2022-08-18T02:15:30.085Z,25.15
2022-08-18T02:17:58.246Z,25.18
2022-08-18T02:20:26.526Z,25.20
2022-08-18T02:22:54.748Z,25.23
2022-08-18T02:25:23.267Z,25.25
2022-08-18T02:27:51.560Z,25.28
2022-08-18T02:30:21.695Z,25.29
2022-08-18T02:32:50.215Z,25.29
2022-08-18T02:35:18.465Z,25.32
2022-08-18T02:37:48.378Z,25.33
2022-08-18T02:40:18.012Z,25.35
2022-08-18T02:42:46.905Z,25.36
2022-08-18T02:45:15.683Z,25.39
2022-08-18T02:47:46.084Z,25.42
2022-08-18T02:50:16.937Z,25.40
2022-08-18T02:52:45.062Z,25.43
2022-08-18T02:55:13.322Z,25.42
2022-08-18T02:57:44.030Z,25.42
2022-08-18T03:00:15.017Z,25.44
2022-08-18T03:02:48.572Z,25.46
2022-08-18T03:05:17.213Z,25.45
2022-08-18T03:07:45.489Z,25.46
2022-08-18T03:10:31.587Z,25.48
2022-08-18T03:13:02.225Z,25.44
2022-08-18T03:15:30.269Z,25.47
2022-08-18T03:18:00.914Z,25.48
2022-08-18T03:20:31.001Z,25.44
2022-08-18T03:23:05.814Z,25.39
2022-08-18T03:29:59.689Z,25.38
2022-08-18T03:32:58.122Z,25.35
2022-08-18T03:36:40.205Z,25.37
2022-08-18T05:38:54.809Z,25.40
2022-08-18T05:41:29.018Z,25.47
2022-08-18T05:43:59.316Z,25.49
2022-08-18T05:46:39.026Z,25.56
2022-08-18T05:49:08.084Z,25.62
2022-08-18T05:51:42.113Z,25.65
2022-08-18T05:54:30.137Z,25.68
2022-08-18T05:57:03.602Z,25.71
2022-08-18T05:59:34.560Z,25.77
2022-08-18T06:02:08.877Z,25.90
2022-08-18T06:04:43.890Z,25.99
2022-08-18T06:07:16.980Z,26.08
2022-08-18T06:09:50.667Z,26.15
2022-08-18T06:12:28.766Z,26.20
2022-08-18T06:15:14.468Z,26.20
2022-08-18T06:18:20.276Z,26.23
2022-08-18T06:21:14.434Z,26.28
2022-08-18T06:23:48.784Z,26.33
2022-08-18T06:26:28.475Z,26.39
2022-08-18T06:29:17.223Z,26.45
2022-08-18T06:31:52.598Z,26.43
2022-08-18T06:34:26.774Z,26.41
2022-08-18T06:36:58.616Z,26.46
2022-08-18T06:39:33.205Z,26.45
2022-08-18T06:42:05.615Z,26.48
2022-08-18T06:44:37.163Z,26.53
2022-08-18T06:47:12.938Z,26.57
2022-08-18T06:49:46.654Z,26.65
2022-08-18T06:52:29.197Z,26.67
2022-08-18T06:54:59.400Z,26.75
2022-08-18T06:57:32.206Z,26.81
2022-08-18T07:00:03.355Z,26.87
2022-08-18T07:02:54.319Z,26.95
2022-08-18T07:05:25.635Z,27.05
2022-08-18T07:08:19.454Z,27.31
2022-08-18T07:10:49.466Z,27.58
2022-08-18T07:13:25.540Z,27.74
2022-08-18T07:17:08.019Z,27.96
2022-08-18T07:24:59.604Z,27.93
2022-08-18T08:54:30.551Z,28.05
2022-08-18T09:25:30.111Z,28.16
2022-08-18T09:28:15.495Z,28.17
2022-08-18T09:31:20.078Z,28.17
2022-08-18T09:34:11.103Z,28.24
2022-08-18T09:36:54.764Z,28.44
2022-08-18T09:39:53.911Z,28.82
2022-08-18T09:42:33.857Z,29.08
2022-08-18T09:45:59.759Z,29.15
2022-08-18T09:48:33.172Z,29.19
2022-08-18T09:51:33.626Z,29.15
2022-08-18T09:54:21.721Z,29.32
2022-08-18T09:57:16.710Z,29.54
2022-08-18T10:00:24.401Z,29.76
2022-08-18T10:03:31.226Z,29.89
2022-08-18T10:06:26.977Z,30.18
2022-08-18T10:09:26.937Z,30.51
2022-08-18T10:12:20.739Z,30.47
2022-08-18T10:15:10.505Z,30.42
2022-08-18T10:17:55.762Z,30.49
2022-08-18T10:20:39.319Z,30.46
2022-08-18T10:23:11.641Z,30.21
2022-08-18T10:25:48.348Z,30.03
2022-08-18T10:28:51.994Z,29.95
2022-08-18T10:31:24.099Z,30.05
2022-08-18T10:34:16.324Z,30.01
2022-08-18T10:36:54.965Z,29.95
2022-08-18T10:39:44.181Z,29.75
2022-08-18T10:42:23.734Z,29.39
2022-08-18T10:45:09.494Z,29.13
2022-08-18T10:47:38.407Z,28.94
2022-08-18T10:50:20.153Z,28.85
2022-08-18T10:53:33.150Z,28.72
2022-08-18T10:56:01.341Z,28.59
2022-08-18T10:59:05.602Z,28.45
2022-08-18T11:02:05.135Z,28.28
2022-08-18T11:04:38.967Z,28.15
2022-08-18T11:07:11.978Z,28.04
2022-08-18T11:09:42.202Z,28.00
2022-08-18T11:12:51.098Z,27.91
2022-08-18T11:15:29.045Z,27.86
2022-08-18T11:18:31.597Z,27.87
2022-08-18T11:21:25.938Z,27.93
2022-08-18T11:24:07.100Z,27.98
2022-08-18T11:26:38.914Z,28.06
2022-08-18T11:29:28.840Z,28.17
2022-08-18T11:32:05.321Z,28.31
2022-08-18T11:34:41.223Z,28.45
2022-08-18T11:37:24.559Z,28.61
2022-08-18T11:39:55.634Z,28.87
2022-08-18T11:42:31.583Z,29.13
2022-08-18T11:45:08.864Z,29.47
2022-08-18T11:47:39.679Z,29.81
2022-08-18T11:50:11.037Z,30.30
2022-08-18T11:52:53.704Z,30.84
2022-08-18T11:55:32.130Z,31.24
2022-08-18T11:58:01.001Z,31.64
2022-08-18T12:00:44.328Z,32.28
2022-08-18T12:03:24.224Z,32.75
2022-08-18T12:08:58.893Z,32.66
2022-08-18T12:11:31.203Z,32.43
2022-08-18T12:14:31.161Z,32.33
2022-08-18T12:16:55.330Z,32.15
2022-08-18T12:19:28.096Z,32.18
2022-08-18T12:21:59.061Z,32.11
2022-08-18T12:27:22.243Z,31.82
2022-08-18T12:29:52.202Z,31.65
2022-08-18T12:32:49.012Z,31.55
2022-08-18T12:35:13.950Z,31.59
2022-08-18T12:40:33.837Z,31.87
2022-08-18T12:43:02.824Z,31.89
2022-08-18T12:45:32.596Z,31.82
2022-08-18T12:48:04.370Z,31.72
2022-08-18T12:50:42.623Z,31.72
2022-08-18T12:56:25.790Z,31.74
2022-08-18T12:58:55.584Z,31.59
2022-08-18T13:01:25.704Z,31.45
2022-08-18T13:04:10.852Z,31.35
2022-08-18T13:06:54.095Z,31.20
2022-08-18T13:09:47.654Z,31.10
2022-08-18T13:12:20.121Z,31.09
2022-08-18T13:14:50.892Z,31.22
2022-08-18T13:17:32.496Z,31.46
2022-08-18T13:20:04.674Z,31.56
2022-08-18T13:22:34.568Z,31.65
2022-08-18T13:25:03.787Z,31.99
2022-08-18T13:27:35.940Z,32.20
2022-08-18T13:30:30.251Z,32.38
2022-08-18T13:33:02.283Z,32.77
2022-08-18T13:35:37.943Z,32.98
2022-08-18T13:38:17.076Z,33.08
2022-08-18T13:40:50.539Z,33.01
2022-08-18T13:43:23.407Z,32.69
2022-08-18T13:45:52.842Z,32.37
2022-08-18T13:48:23.686Z,32.16
2022-08-18T13:50:53.873Z,32.18
2022-08-18T13:53:27.288Z,32.18
2022-08-18T13:55:59.052Z,32.20
2022-08-18T13:58:28.454Z,32.01
2022-08-18T14:01:22.604Z,31.83
2022-08-18T14:03:49.951Z,31.48
2022-08-18T14:06:23.025Z,31.27
2022-08-18T14:08:54.985Z,31.08
2022-08-18T14:11:32.958Z,30.91
2022-08-18T14:14:03.583Z,30.76
2022-08-18T14:16:33.416Z,30.59
2022-08-18T14:19:17.635Z,30.44
2022-08-18T14:22:06.663Z,30.33
2022-08-18T14:25:00.712Z,30.25
2022-08-18T14:27:34.977Z,30.19
2022-08-18T14:30:06.751Z,30.24
2022-08-18T14:32:42.086Z,30.32
2022-08-18T14:35:32.992Z,30.55
2022-08-18T14:38:09.770Z,30.90
2022-08-18T14:40:43.235Z,31.07
2022-08-18T14:43:12.340Z,31.07
2022-08-18T14:45:45.893Z,30.97
2022-08-18T14:48:14.874Z,30.82
2022-08-18T14:50:49.064Z,30.75
2022-08-18T14:53:20.308Z,30.71
2022-08-18T14:55:52.621Z,30.81
2022-08-18T14:58:22.160Z,30.95
2022-08-18T15:00:54.263Z,31.20
2022-08-18T15:03:31.450Z,31.43
2022-08-18T15:06:04.409Z,31.48
2022-08-18T15:08:34.477Z,31.59
2022-08-18T15:11:11.785Z,31.68
2022-08-18T15:13:43.590Z,31.71
2022-08-18T15:16:14.765Z,31.79
2022-08-18T15:18:45.055Z,31.89
2022-08-18T15:21:35.530Z,31.89
2022-08-18T15:24:25.696Z,31.89
2022-08-18T15:26:57.990Z,31.84
2022-08-18T15:32:16.870Z,31.73
2022-08-18T15:34:50.931Z,31.68
2022-08-18T15:37:20.530Z,31.68
2022-08-18T15:40:04.018Z,31.61
2022-08-18T15:42:33.861Z,31.59
2022-08-18T15:45:11.580Z,31.56
2022-08-18T15:47:41.586Z,31.59
2022-08-18T15:50:25.642Z,31.63
2022-08-18T15:52:58.000Z,31.67
2022-08-18T15:55:29.671Z,31.64
2022-08-18T15:58:11.134Z,31.59
2022-08-18T16:00:42.744Z,31.57
2022-08-18T16:03:15.314Z,31.45
2022-08-18T16:05:51.691Z,31.35
2022-08-18T16:08:23.008Z,31.25
2022-08-18T16:10:51.359Z,31.23
2022-08-18T16:13:21.306Z,31.07
2022-08-18T16:15:50.456Z,30.90
2022-08-18T16:18:20.372Z,30.76
2022-08-18T16:20:48.787Z,30.69
2022-08-18T16:23:21.193Z,30.62
2022-08-18T16:25:50.018Z,30.44
2022-08-18T16:28:18.398Z,30.16
2022-08-18T16:30:48.491Z,29.93
2022-08-18T16:33:17.069Z,29.76
2022-08-18T16:35:47.694Z,29.67
2022-08-18T16:38:16.044Z,29.56
2022-08-18T16:40:44.599Z,29.50
2022-08-18T16:43:14.829Z,29.46
2022-08-18T16:45:43.680Z,29.60
2022-08-18T16:48:16.806Z,29.72
2022-08-18T16:50:49.539Z,29.78
2022-08-18T16:53:18.491Z,29.86
2022-08-18T16:55:46.882Z,29.94
2022-08-18T16:58:32.125Z,29.95
2022-08-18T17:01:20.384Z,29.86
2022-08-18T17:04:13.640Z,29.87
2022-08-18T17:06:47.771Z,29.83
2022-08-18T17:09:16.589Z,29.77
2022-08-18T17:11:51.712Z,29.65
2022-08-18T17:14:21.906Z,29.56
2022-08-18T17:16:54.978Z,29.52
2022-08-18T17:19:27.568Z,29.44
2022-08-18T17:21:55.934Z,29.36
2022-08-18T17:24:31.440Z,29.32
2022-08-18T17:27:12.074Z,29.35
2022-08-18T17:30:01.851Z,29.29
2022-08-18T17:35:14.033Z,29.15
2022-08-18T17:37:49.527Z,29.08
2022-08-18T17:40:22.255Z,29.02
2022-08-18T17:42:53.594Z,28.95
2022-08-18T17:45:23.187Z,28.89
2022-08-18T17:47:58.003Z,28.82
2022-08-18T17:50:49.433Z,28.68
2022-08-18T17:53:18.485Z,28.56
2022-08-18T17:55:50.908Z,28.49
2022-08-18T17:58:27.214Z,28.35
2022-08-18T18:00:55.538Z,28.20
2022-08-18T18:03:23.882Z,28.10
2022-08-18T18:06:09.952Z,27.99
2022-08-18T18:08:54.510Z,27.85
2022-08-18T18:11:28.706Z,27.71
2022-08-18T18:13:57.034Z,27.59
2022-08-18T18:16:29.746Z,27.50
2022-08-18T18:19:02.849Z,27.38
2022-08-18T18:22:00.789Z,27.25
2022-08-18T18:24:31.451Z,27.10
2022-08-18T18:27:00.065Z,27.02
2022-08-18T18:29:35.610Z,26.93
2022-08-18T18:32:08.711Z,26.83
2022-08-18T18:34:39.839Z,26.72
2022-08-18T18:37:27.107Z,26.57
2022-08-18T18:39:57.692Z,26.52
2022-08-18T18:42:29.587Z,26.45
2022-08-18T18:45:00.264Z,26.35
2022-08-18T18:47:45.194Z,26.25
2022-08-18T18:50:22.369Z,26.18
2022-08-18T18:53:05.908Z,26.07
2022-08-18T18:55:39.885Z,25.99
2022-08-18T18:58:18.721Z,25.90
2022-08-18T19:00:53.805Z,25.81
2022-08-18T19:03:29.580Z,25.73
2022-08-18T19:06:26.267Z,25.63
2022-08-18T19:09:04.191Z,25.52
2022-08-18T19:11:43.621Z,25.46
2022-08-18T19:14:18.063Z,25.36
2022-08-18T19:16:52.648Z,25.28
2022-08-18T19:19:37.021Z,25.21
2022-08-18T19:22:13.424Z,25.15
2022-08-18T19:24:55.009Z,25.03
2022-08-18T19:27:31.913Z,24.97
2022-08-18T19:30:06.337Z,24.92
2022-08-18T19:32:40.871Z,24.90
2022-08-18T19:35:15.053Z,24.86
2022-08-18T19:38:02.850Z,24.79
2022-08-18T19:40:45.124Z,24.74
2022-08-18T19:43:26.696Z,24.66
2022-08-18T19:46:05.613Z,24.61
2022-08-18T19:48:44.105Z,24.56
2022-08-18T19:51:20.731Z,24.50
2022-08-18T19:54:04.697Z,24.43
2022-08-18T19:56:47.956Z,24.38
2022-08-18T19:59:35.143Z,24.29
2022-08-18T20:02:21.038Z,24.23
2022-08-18T20:05:04.703Z,24.15
2022-08-18T20:08:07.973Z,24.04
2022-08-18T20:10:49.037Z,23.99
2022-08-18T20:13:33.039Z,23.91
2022-08-18T20:16:35.547Z,23.84
2022-08-18T20:19:45.511Z,23.75
2022-08-18T20:22:31.943Z,23.68
2022-08-18T20:25:06.211Z,23.66
2022-08-18T20:27:40.393Z,23.61
2022-08-18T20:30:48.852Z,23.52
2022-08-18T20:33:29.658Z,23.46
2022-08-18T20:36:13.128Z,23.41
2022-08-18T20:38:45.725Z,23.39
2022-08-18T20:41:38.978Z,23.34
2022-08-18T20:44:50.468Z,23.28
2022-08-18T20:47:39.067Z,23.25
2022-08-18T20:50:33.836Z,23.18
2022-08-18T20:53:09.470Z,23.18
2022-08-18T20:55:49.392Z,23.16
2022-08-18T20:58:26.439Z,23.15
2022-08-18T21:00:58.329Z,23.13
2022-08-18T21:03:38.049Z,23.05
2022-08-18T21:06:07.581Z,23.02
2022-08-18T21:08:39.089Z,22.98
2022-08-18T21:11:11.213Z,22.95
2022-08-18T21:13:52.858Z,22.94
2022-08-18T21:16:39.171Z,22.92
2022-08-18T21:19:13.984Z,22.91
2022-08-18T21:21:46.691Z,22.87
2022-08-18T21:24:28.511Z,22.84
2022-08-18T21:26:59.212Z,22.82
2022-08-18T21:29:46.864Z,22.78
2022-08-18T21:32:20.265Z,22.76
2022-08-18T21:34:52.206Z,22.73
2022-08-18T21:37:21.596Z,22.69
2022-08-18T21:39:53.064Z,22.67
2022-08-18T21:42:26.198Z,22.63
2022-08-18T21:44:56.422Z,22.58
2022-08-18T21:47:31.939Z,22.56
2022-08-18T21:50:11.488Z,22.51
2022-08-18T21:52:41.864Z,22.49
2022-08-18T21:55:19.985Z,22.46
2022-08-18T21:58:01.006Z,22.44
2022-08-18T22:00:31.887Z,22.41
2022-08-18T22:03:22.003Z,22.38
2022-08-18T22:06:00.855Z,22.33
2022-08-18T22:08:49.683Z,22.32
2022-08-18T22:12:01.313Z,22.25
2022-08-18T22:14:54.096Z,22.23
2022-08-18T22:17:31.375Z,22.21
2022-08-18T22:20:42.231Z,22.17
2022-08-18T22:23:53.598Z,22.10
2022-08-18T22:26:25.565Z,22.07
2022-08-18T22:29:01.282Z,22.05
2022-08-18T22:31:33.694Z,22.03
2022-08-18T22:34:05.201Z,22.03
2022-08-18T22:36:37.644Z,22.01
2022-08-18T22:39:12.717Z,21.97
2022-08-18T22:41:42.122Z,21.96
2022-08-18T22:44:10.548Z,21.95
2022-08-18T22:46:38.873Z,21.92
2022-08-18T22:49:07.175Z,21.90
2022-08-18T22:51:38.289Z,21.87
2022-08-18T22:54:11.054Z,21.83
2022-08-18T22:56:39.597Z,21.83
2022-08-18T22:59:22.521Z,21.80
2022-08-18T23:01:52.240Z,21.79
2022-08-18T23:04:22.852Z,21.75
2022-08-18T23:06:52.747Z,21.72
2022-08-18T23:09:26.104Z,21.70
2022-08-18T23:11:56.958Z,21.69
2022-08-18T23:14:26.017Z,21.67
2022-08-18T23:16:54.405Z,21.63
2022-08-18T23:19:23.008Z,21.55
2022-08-18T23:21:52.353Z,21.50
2022-08-18T23:24:23.082Z,21.48
2022-08-18T23:26:51.751Z,21.47
2022-08-18T23:29:22.562Z,21.47
2022-08-18T23:31:52.094Z,21.45
2022-08-18T23:34:23.049Z,21.46
2022-08-18T23:36:56.593Z,21.43
2022-08-18T23:39:27.080Z,21.40
2022-08-18T23:41:56.285Z,21.38
2022-08-18T23:44:27.509Z,21.36
2022-08-18T23:46:58.257Z,21.34
2022-08-18T23:49:29.219Z,21.31
2022-08-18T23:51:59.138Z,21.29
2022-08-18T23:54:31.418Z,21.27
2022-08-18T23:56:59.804Z,21.22
2022-08-18T23:59:29.652Z,21.21
